Time;durP1;ratioP1;P1;durP2;ratioP2;P2;SDS_P1;SDS_P2;PMS_P1;PMS_P2;Temp;Humidity;BMP_temperature;BMP_pressure;BME280_temperature;BME280_humidity;BME280_pressure;Samples;Min_cycle;Max_cycle;Signal;HPM_P1;HPM_P2
2020/12/05 00:00:00;;;;;;;9.07;6.00;;;154.10;2201.60;;;;;;5117349;28;20031;-70
2020/12/05 00:02:26;;;;;;;12.23;6.22;;;154.10;2176.00;;;;;;5117638;28;20325;-72
2020/12/05 00:04:52;;;;;;;14.18;6.70;;;154.10;2201.60;;;;;;5117713;28;20076;-72
2020/12/05 00:07:19;;;;;;;11.27;6.97;;;154.10;2176.00;;;;;;5117507;28;20035;-70
2020/12/05 00:09:45;;;;;;;10.48;6.22;;;154.00;2201.60;;;;;;5117528;28;20030;-71
2020/12/05 00:12:11;;;;;;;10.43;6.28;;;153.90;2201.60;;;;;;5117380;28;20023;-70
2020/12/05 00:14:37;;;;;;;11.75;7.00;;;154.00;2201.60;;;;;;5116887;28;20027;-68
2020/12/05 00:17:03;;;;;;;11.48;6.90;;;153.80;2201.60;;;;;;5117235;28;20031;-69
2020/12/05 00:19:29;;;;;;;11.55;6.88;;;153.70;2227.20;;;;;;5115602;28;20027;-70
2020/12/05 00:21:56;;;;;;;10.80;6.65;;;153.90;2227.20;;;;;;5116447;28;20479;-70
2020/12/05 00:24:22;;;;;;;9.60;5.95;;;153.90;2252.80;;;;;;5117433;28;20076;-71
2020/12/05 00:26:52;;;;;;;8.70;5.78;;;153.90;2227.20;;;;;;5116996;28;20039;-70
2020/12/05 00:29:19;;;;;;;10.30;6.10;;;154.00;2252.80;;;;;;5116845;28;20444;-71
2020/12/05 00:31:50;;;;;;;11.45;6.60;;;153.90;2227.20;;;;;;5117011;28;20373;-70
2020/12/05 00:34:16;;;;;;;10.10;5.93;;;153.90;2227.20;;;;;;5116986;28;20435;-71
2020/12/05 00:36:42;;;;;;;12.05;5.40;;;153.90;2252.80;;;;;;5115885;28;20039;-69
2020/12/05 00:39:07;;;;;;;11.05;5.40;;;154.20;2252.80;;;;;;5116430;28;20080;-72
2020/12/05 00:41:33;;;;;;;11.40;6.70;;;154.50;2252.80;;;;;;5116698;28;20055;-70
2020/12/05 00:43:59;;;;;;;10.77;6.50;;;154.30;2201.60;;;;;;5116974;28;20070;-71
2020/12/05 00:46:25;;;;;;;11.27;6.57;;;154.10;2176.00;;;;;;5116789;28;20039;-69
2020/12/05 00:48:51;;;;;;;12.40;7.78;;;153.90;2201.60;;;;;;5116694;28;20035;-71
2020/12/05 00:51:16;;;;;;;11.10;6.75;;;153.80;2201.60;;;;;;5116424;28;20076;-69
2020/12/05 00:53:42;;;;;;;10.38;6.20;;;128.90;2252.80;;;;;;5116668;28;20035;-68
2020/12/05 00:56:08;;;;;;;10.70;6.40;;;153.70;2252.80;;;;;;5116526;28;20032;-70
2020/12/05 00:58:37;;;;;;;10.75;6.22;;;128.90;2252.80;;;;;;5116812;28;20657;-69
2020/12/05 01:01:05;;;;;;;11.63;6.47;;;128.90;2252.80;;;;;;5116708;28;20067;-69
2020/12/05 01:03:31;;;;;;;10.70;6.77;;;153.60;2252.80;;;;;;5116005;28;20024;-70
2020/12/05 01:05:57;;;;;;;12.10;7.00;;;128.90;2252.80;;;;;;5115855;28;20324;-69
2020/12/05 01:08:23;;;;;;;9.20;5.53;;;128.90;2252.80;;;;;;5115894;28;20407;-69
2020/12/05 01:10:50;;;;;;;9.32;5.70;;;153.60;2252.80;;;;;;5115832;28;20028;-68
2020/12/05 01:13:16;;;;;;;10.27;6.10;;;153.80;2252.80;;;;;;5115994;28;20030;-69
2020/12/05 01:15:42;;;;;;;10.13;5.72;;;153.80;2252.80;;;;;;5115965;28;20035;-70
2020/12/05 01:18:07;;;;;;;9.18;5.47;;;153.90;2252.80;;;;;;5115761;28;20111;-69
2020/12/05 01:20:33;;;;;;;10.23;5.43;;;154.30;2252.80;;;;;;5115549;28;20522;-70
2020/12/05 01:22:59;;;;;;;11.45;6.10;;;154.50;2252.80;;;;;;5115813;28;20055;-69
2020/12/05 01:25:25;;;;;;;8.88;4.95;;;179.20;2252.80;;;;;;5112150;28;20032;-67
2020/12/05 01:27:51;;;;;;;8.60;5.72;;;179.40;2252.80;;;;;;5112843;28;20035;-71
2020/12/05 01:30:16;;;;;;;10.60;5.68;;;179.40;2252.80;;;;;;5117936;28;20481;-72
2020/12/05 01:32:42;;;;;;;8.65;5.20;;;179.50;2227.20;;;;;;5117530;28;20028;-68
2020/12/05 01:35:08;;;;;;;9.63;5.80;;;179.40;2201.60;;;;;;5118139;28;20114;-70
2020/12/05 01:37:34;;;;;;;11.35;6.75;;;179.20;2201.60;;;;;;5117937;28;20032;-69
2020/12/05 01:39:59;;;;;;;10.82;6.35;;;154.30;2227.20;;;;;;5118255;28;20333;-70
2020/12/05 01:42:25;;;;;;;8.55;5.65;;;154.10;2201.60;;;;;;5117842;28;20027;-70
2020/12/05 01:44:51;;;;;;;10.43;6.07;;;153.90;2201.60;;;;;;5118257;28;20147;-69
2020/12/05 01:47:19;;;;;;;11.63;6.50;;;153.80;2252.80;;;;;;5118128;28;20054;-70
2020/12/05 01:49:45;;;;;;;8.70;5.53;;;153.80;2252.80;;;;;;5118015;28;20024;-70
2020/12/05 01:52:14;;;;;;;10.32;5.90;;;153.90;2252.80;;;;;;5117946;28;20417;-71
2020/12/05 01:54:40;;;;;;;10.48;6.07;;;153.70;2227.20;;;;;;5117468;28;20329;-73
2020/12/05 01:57:05;;;;;;;10.93;5.88;;;153.70;2252.80;;;;;;5117945;28;20031;-69
2020/12/05 01:59:32;;;;;;;10.23;6.32;;;153.80;2252.80;;;;;;5118066;28;20028;-68
2020/12/05 02:02:01;;;;;;;11.65;5.57;;;153.80;2252.80;;;;;;5117448;28;20076;-68
2020/12/05 02:04:55;;;;;;;9.35;5.95;;;153.80;2252.80;;;;;;5117884;28;20096;-69
2020/12/05 02:07:35;;;;;;;8.23;5.57;;;153.80;2252.80;;;;;;5117586;28;20027;-69
2020/12/05 02:10:03;;;;;;;9.45;5.80;;;153.80;2252.80;;;;;;5117965;28;20394;-71
2020/12/05 02:12:49;;;;;;;8.82;5.25;;;154.00;2252.80;;;;;;5117262;28;20072;-68
2020/12/05 02:15:26;;;;;;;9.30;5.00;;;154.30;2252.80;;;;;;5117866;28;20019;-70
2020/12/05 02:18:06;;;;;;;8.50;5.55;;;179.20;2252.80;;;;;;5117773;28;20027;-71
2020/12/05 02:20:38;;;;;;;8.90;5.38;;;179.30;2252.80;;;;;;5117873;28;20031;-70
2020/12/05 02:23:13;;;;;;;9.32;5.70;;;179.30;2201.60;;;;;;5117893;28;20434;-71
2020/12/05 02:25:42;;;;;;;9.90;5.38;;;179.20;2201.60;;;;;;5117525;28;20333;-69
2020/12/05 02:28:08;;;;;;;8.20;4.90;;;179.50;2252.80;;;;;;5117152;28;20122;-70
2020/12/05 02:30:34;;;;;;;8.45;4.72;;;179.80;2252.80;;;;;;5117194;28;20019;-70
2020/12/05 02:33:01;;;;;;;11.10;5.78;;;180.10;2252.80;;;;;;5117028;28;20478;-69
2020/12/05 02:35:28;;;;;;;7.75;4.63;;;204.90;2252.80;;;;;;5117438;28;20345;-68
2020/12/05 02:38:00;;;;;;;9.10;5.25;;;205.10;2227.20;;;;;;5117144;28;20409;-70
2020/12/05 02:40:26;;;;;;;8.98;4.93;;;205.20;2227.20;;;;;;5116977;28;20023;-67
2020/12/05 02:42:51;;;;;;;8.43;4.82;;;205.30;2201.60;;;;;;5119758;28;20073;-68
2020/12/05 02:45:17;;;;;;;7.72;5.05;;;205.40;2201.60;;;;;;5121373;28;20028;-68
2020/12/05 02:47:43;;;;;;;6.47;3.72;;;205.50;2201.60;;;;;;5121162;28;20302;-70
2020/12/05 02:50:09;;;;;;;7.78;4.30;;;205.60;2176.00;;;;;;5121213;28;20034;-70
2020/12/05 02:52:35;;;;;;;6.45;4.65;;;205.70;2176.00;;;;;;5120799;28;20027;-70
2020/12/05 02:55:00;;;;;;;11.27;4.82;;;205.70;2150.40;;;;;;5121243;28;20080;-69
2020/12/05 02:57:26;;;;;;;9.38;5.20;;;205.70;2150.40;;;;;;5120845;28;20062;-69
2020/12/05 02:59:52;;;;;;;7.95;4.38;;;205.70;2124.80;;;;;;5121210;28;20380;-68
2020/12/05 03:02:18;;;;;;;7.18;4.50;;;205.70;2124.80;;;;;;5121079;28;20026;-70
2020/12/05 03:04:44;;;;;;;7.40;4.20;;;205.70;2150.40;;;;;;5121200;28;20072;-69
2020/12/05 03:07:09;;;;;;;7.82;4.30;;;205.70;2124.80;;;;;;5120978;28;20028;-68
2020/12/05 03:09:35;;;;;;;8.15;4.82;;;205.70;2150.40;;;;;;5120953;28;20070;-68
2020/12/05 03:12:01;;;;;;;12.05;4.80;;;205.70;2124.80;;;;;;5120812;28;20031;-68
2020/12/05 03:14:27;;;;;;;6.32;4.72;;;205.70;2124.80;;;;;;5120687;28;20128;-71
2020/12/05 03:16:52;;;;;;;6.65;4.30;;;230.40;2124.80;;;;;;5120998;28;20023;-71
2020/12/05 03:19:18;;;;;;;8.60;3.85;;;230.50;2124.80;;;;;;5120781;28;20034;-69
2020/12/05 03:21:44;;;;;;;7.07;4.30;;;230.50;2124.80;;;;;;5120679;28;20046;-71
2020/12/05 03:24:10;;;;;;;8.60;4.70;;;230.50;2124.80;;;;;;5120318;28;20024;-70
2020/12/05 03:26:36;;;;;;;6.93;4.43;;;230.60;2099.20;;;;;;5120478;28;20023;-70
2020/12/05 03:29:02;;;;;;;6.35;4.20;;;230.50;2124.80;;;;;;5119838;28;20031;-70
2020/12/05 03:31:48;;;;;;;7.35;4.18;;;230.50;2124.80;;;;;;5120452;28;20019;-68
2020/12/05 03:34:15;;;;;;;6.30;3.83;;;230.50;2124.80;;;;;;5120472;28;20066;-68
2020/12/05 03:36:41;;;;;;;6.93;4.28;;;230.50;2124.80;;;;;;5120547;28;20085;-69
2020/12/05 03:39:07;;;;;;;8.48;4.53;;;230.50;2124.80;;;;;;5120600;28;20020;-70
2020/12/05 03:41:33;;;;;;;9.73;4.57;;;230.60;2124.80;;;;;;5119883;28;20107;-71
2020/12/05 03:43:59;;;;;;;8.57;5.25;;;230.50;2124.80;;;;;;5120583;28;20023;-69
2020/12/05 03:46:25;;;;;;;6.95;4.35;;;205.70;2048.00;;;;;;5119811;28;20031;-69
2020/12/05 03:48:50;;;;;;;7.50;4.57;;;205.40;2073.60;;;;;;5119993;28;20024;-69
2020/12/05 03:51:16;;;;;;;8.10;4.00;;;205.40;2124.80;;;;;;5120442;28;20378;-69
2020/12/05 03:53:42;;;;;;;7.65;4.47;;;205.40;2176.00;;;;;;5119759;28;20027;-70
2020/12/05 03:56:08;;;;;;;8.20;4.60;;;205.40;2099.20;;;;;;5119281;28;20032;-70
2020/12/05 03:58:33;;;;;;;7.38;4.60;;;205.30;2124.80;;;;;;5119698;28;20027;-70
2020/12/05 04:00:59;;;;;;;7.53;4.68;;;205.10;2124.80;;;;;;5119890;28;20405;-69
2020/12/05 04:03:25;;;;;;;8.20;4.20;;;205.10;2124.80;;;;;;5119413;28;20019;-71
2020/12/05 04:05:51;;;;;;;7.95;5.00;;;205.10;2150.40;;;;;;5119669;28;20034;-70
2020/12/05 04:08:16;;;;;;;7.07;4.45;;;205.00;2150.40;;;;;;5119873;28;20115;-69
2020/12/05 04:10:42;;;;;;;8.65;4.65;;;205.10;2201.60;;;;;;5119870;28;20038;-68
2020/12/05 04:13:08;;;;;;;10.02;5.13;;;205.00;2124.80;;;;;;5119119;28;20131;-71
2020/12/05 04:15:34;;;;;;;8.48;4.63;;;205.00;2201.60;;;;;;5119672;28;20032;-70
2020/12/05 04:18:00;;;;;;;6.75;4.13;;;205.10;2201.60;;;;;;5119161;28;20058;-69
2020/12/05 04:20:25;;;;;;;6.63;4.13;;;205.40;2201.60;;;;;;5119515;28;20096;-68
2020/12/05 04:22:54;;;;;;;7.82;4.10;;;205.40;2176.00;;;;;;5119575;28;20073;-70
2020/12/05 04:25:22;;;;;;;;;;;205.60;2150.40;;;;;;5119678;28;20114;-71
2020/12/05 04:27:47;;;;;;;9.27;4.57;;;205.70;2150.40;;;;;;5119089;28;19914;-67
2020/12/05 04:30:13;;;;;;;7.85;4.47;;;205.60;2124.80;;;;;;5119699;28;20110;-70
2020/12/05 04:32:39;;;;;;;7.50;3.83;;;205.70;2124.80;;;;;;5119123;28;20028;-69
2020/12/05 04:35:05;;;;;;;8.35;4.43;;;205.70;2124.80;;;;;;5119220;28;20413;-71
2020/12/05 04:37:30;;;;;;;7.40;4.03;;;205.60;2124.80;;;;;;5119358;28;20314;-69
2020/12/05 04:39:56;;;;;;;7.03;4.05;;;205.60;2124.80;;;;;;5118902;28;20108;-70
2020/12/05 04:42:22;;;;;;;8.02;4.20;;;205.70;2124.80;;;;;;5118517;28;20024;-70
2020/12/05 04:44:48;;;;;;;12.80;4.70;;;205.70;2124.80;;;;;;5118900;28;20031;-70
2020/12/05 04:47:16;;;;;;;8.23;4.45;;;205.60;2124.80;;;;;;5118980;28;20032;-67
2020/12/05 04:49:43;;;;;;;11.63;5.13;;;205.70;2099.20;;;;;;5118958;28;20389;-71
2020/12/05 04:52:25;;;;;;;7.57;4.10;;;205.50;2124.80;;;;;;5118709;28;20251;-70
2020/12/05 04:54:53;;;;;;;7.53;4.30;;;205.70;2124.80;;;;;;5118855;28;20110;-72
2020/12/05 04:57:24;;;;;;;7.38;4.60;;;205.60;2099.20;;;;;;5118783;28;20027;-70
2020/12/05 04:59:51;;;;;;;7.93;4.20;;;205.60;2124.80;;;;;;5118130;28;20379;-67
2020/12/05 05:02:25;;;;;;;8.45;4.25;;;205.60;2099.20;;;;;;5118722;28;20061;-69
2020/12/05 05:04:51;;;;;;;6.55;3.83;;;205.70;2099.20;;;;;;5118355;28;20019;-70
2020/12/05 05:07:17;;;;;;;7.93;4.35;;;205.60;2099.20;;;;;;5118631;28;20402;-68
2020/12/05 05:10:00;;;;;;;5.93;4.18;;;205.60;2073.60;;;;;;5118866;28;20028;-69
2020/12/05 05:12:34;;;;;;;10.43;4.80;;;205.40;2099.20;;;;;;5118698;28;20016;-70
2020/12/05 05:15:00;;;;;;;8.98;5.20;;;205.40;2099.20;;;;;;5118544;28;20412;-69
2020/12/05 05:17:26;;;;;;;6.45;3.95;;;205.30;2048.00;;;;;;5118419;28;20070;-69
2020/12/05 05:19:52;;;;;;;7.97;3.83;;;205.20;2124.80;;;;;;5118244;28;20114;-73
2020/12/05 05:22:22;;;;;;;8.82;4.30;;;205.20;2124.80;;;;;;5117908;28;20055;-71
2020/12/05 05:25:05;;;;;;;7.63;4.15;;;205.40;2150.40;;;;;;5118289;28;20028;-70
2020/12/05 05:27:32;;;;;;;6.22;3.80;;;205.40;2124.80;;;;;;5117268;28;20072;-69
2020/12/05 05:30:14;;;;;;;7.65;3.53;;;205.60;2124.80;;;;;;5118225;28;20028;-70
2020/12/05 05:32:50;;;;;;;6.72;4.07;;;205.70;2099.20;;;;;;5117626;28;20445;-67
2020/12/05 05:35:16;;;;;;;7.65;3.55;;;205.70;2099.20;;;;;;5118182;28;20058;-72
2020/12/05 05:37:43;;;;;;;9.70;4.13;;;230.50;2099.20;;;;;;5118088;28;20063;-71
2020/12/05 05:40:11;;;;;;;7.50;4.50;;;230.50;2073.60;;;;;;5118096;28;20023;-70
2020/12/05 05:42:41;;;;;;;6.47;4.00;;;230.40;2022.40;;;;;;5118160;28;20023;-68
2020/12/05 05:45:25;;;;;;;11.63;4.50;;;205.50;1996.80;;;;;;5118004;28;20034;-70
2020/12/05 05:47:53;;;;;;;8.00;5.07;;;205.20;2022.40;;;;;;5118112;28;20027;-69
2020/12/05 05:50:30;;;;;;;7.03;4.77;;;205.00;2048.00;;;;;;5117670;28;20023;-69
2020/12/05 05:53:00;;;;;;;7.78;4.68;;;204.90;2073.60;;;;;;5117903;28;20034;-70
2020/12/05 05:55:47;;;;;;;9.40;5.72;;;180.10;2073.60;;;;;;5117700;28;20049;-70
2020/12/05 05:58:21;;;;;;;7.03;4.70;;;179.90;2073.60;;;;;;5118125;28;20436;-70
2020/12/05 06:00:49;;;;;;;10.35;5.53;;;179.80;2099.20;;;;;;5117252;28;20424;-69
2020/12/05 06:03:24;;;;;;;9.80;6.13;;;179.70;2150.40;;;;;;5117609;28;20023;-70
2020/12/05 06:05:58;;;;;;;13.88;7.40;;;179.60;2150.40;;;;;;5117877;28;20148;-69
2020/12/05 06:08:29;;;;;;;17.42;9.52;;;179.70;2150.40;;;;;;5117032;28;20062;-71
2020/12/05 06:11:08;;;;;;;10.02;5.85;;;179.70;2124.80;;;;;;5118048;28;20103;-69
2020/12/05 06:13:35;;;;;;;37.00;21.45;;;179.80;2150.40;;;;;;5117373;28;20019;-68
2020/12/05 06:16:02;;;;;;;14.25;10.38;;;179.80;2124.80;;;;;;5118320;28;20325;-70
2020/12/05 06:18:29;;;;;;;16.23;12.05;;;179.70;2124.80;;;;;;5121689;28;20023;-70
2020/12/05 06:20:55;;;;;;;20.52;11.00;;;179.80;2150.40;;;;;;5121872;28;20031;-70
2020/12/05 06:23:45;;;;;;;57.95;33.70;;;179.90;2176.00;;;;;;5121694;28;20023;-68
2020/12/05 06:26:18;;;;;;;11.80;7.65;;;179.90;2124.80;;;;;;5121425;28;20043;-69
2020/12/05 06:28:45;;;;;;;8.48;5.65;;;180.10;2176.00;;;;;;5121484;28;20118;-70
2020/12/05 06:31:10;;;;;;;23.13;15.48;;;204.80;2176.00;;;;;;5118113;28;20038;-70
2020/12/05 06:33:43;;;;;;;85.03;49.65;;;205.20;2201.60;;;;;;5121566;28;20019;-67
2020/12/05 06:36:27;;;;;;;86.32;55.58;;;205.60;2176.00;;;;;;5121971;28;20027;-69
2020/12/05 06:39:08;;;;;;;66.85;44.45;;;230.40;2150.40;;;;;;5121612;28;20088;-69
2020/12/05 06:41:37;;;;;;;115.60;75.78;;;230.60;2124.80;;;;;;5121723;28;20028;-69
2020/12/05 06:44:19;;;;;;;60.22;42.20;;;230.90;2099.20;;;;;;5120977;28;20019;-69
2020/12/05 06:46:56;;;;;;;43.40;32.10;;;231.10;2073.60;;;;;;5121584;28;20027;-71
2020/12/05 06:52:21;;;;;;;41.38;28.50;;;256.00;2022.40;;;;;;5120870;28;20076;-69
2020/12/05 06:55:00;;;;;;;26.88;22.42;;;256.20;2022.40;;;;;;5121463;28;20067;-68
2020/12/05 06:57:29;;;;;;;14.30;11.18;;;256.30;2022.40;;;;;;5121056;28;20435;-69
2020/12/05 07:00:24;;;;;;;24.48;15.07;;;256.40;1996.80;;;;;;5121173;28;20065;-69
2020/12/05 07:02:54;;;;;;;28.88;21.75;;;256.60;1971.20;;;;;;5103706;28;20079;-69
2020/12/05 07:05:20;;;;;;;23.95;16.98;;;256.70;1971.20;;;;;;5120738;28;20031;-68
2020/12/05 07:07:53;;;;;;;27.52;20.20;;;256.70;1971.20;;;;;;5120966;28;20028;-69
2020/12/05 07:10:39;;;;;;;11.70;8.75;;;256.70;1945.60;;;;;;5121026;28;20020;-68
2020/12/05 07:13:16;;;;;;;16.42;14.65;;;256.80;1945.60;;;;;;5120293;28;20035;-69
2020/12/05 07:15:42;;;;;;;20.92;12.18;;;256.90;1920.00;;;;;;5121128;28;20023;-68
2020/12/05 07:18:10;;;;;;;24.77;14.65;;;281.60;1945.60;;;;;;5121090;28;20333;-68
2020/12/05 07:20:36;;;;;;;20.25;12.77;;;281.60;1945.60;;;;;;5120627;28;20026;-71
2020/12/05 07:23:03;;;;;;;21.02;11.52;;;281.60;1920.00;;;;;;5121138;28;20052;-70
2020/12/05 07:25:29;;;;;;;11.68;7.90;;;281.60;1920.00;;;;;;5120480;28;20024;-69
2020/12/05 07:27:55;;;;;;;15.80;7.72;;;281.70;1920.00;;;;;;5119674;28;20035;-69
2020/12/05 07:30:21;;;;;;;7.38;5.55;;;281.80;1920.00;;;;;;5120821;28;20024;-71
2020/12/05 07:32:49;;;;;;;12.27;4.88;;;281.90;1920.00;;;;;;5120592;28;20035;-70
2020/12/05 07:35:15;;;;;;;11.85;7.18;;;281.90;1894.40;;;;;;5120785;28;20015;-69
2020/12/05 07:37:42;;;;;;;9.05;4.55;;;282.00;1894.40;;;;;;5120685;28;20027;-69
2020/12/05 07:40:08;;;;;;;10.90;6.55;;;281.90;1868.80;;;;;;5120199;28;20314;-70
2020/12/05 07:42:34;;;;;;;11.02;6.38;;;282.00;1894.40;;;;;;5120361;28;20028;-68
2020/12/05 07:45:05;;;;;;;17.75;10.43;;;282.10;1868.80;;;;;;5120235;28;20165;-69
2020/12/05 07:47:31;;;;;;;13.43;6.25;;;282.10;1868.80;;;;;;5120331;28;20030;-71
2020/12/05 07:49:59;;;;;;;10.13;6.70;;;282.10;1868.80;;;;;;5120088;28;20407;-72
2020/12/05 07:52:25;;;;;;;15.27;8.55;;;282.20;1868.80;;;;;;5120423;28;20031;-70
2020/12/05 07:54:57;;;;;;;12.55;8.88;;;282.20;1843.20;;;;;;5119628;28;20024;-69
2020/12/05 07:57:30;;;;;;;14.82;5.82;;;282.30;1843.20;;;;;;5120037;28;20118;-71
2020/12/05 08:00:06;;;;;;;11.68;4.63;;;282.40;1843.20;;;;;;5120302;28;20110;-75
2020/12/05 08:02:35;;;;;;;10.43;6.72;;;282.50;1843.20;;;;;;5119457;28;20417;-71
2020/12/05 08:05:07;;;;;;;8.70;5.18;;;307.20;1843.20;;;;;;5118104;28;20403;-71
2020/12/05 08:07:45;;;;;;;9.20;4.57;;;307.20;1843.20;;;;;;5119852;28;20067;-71
2020/12/05 08:10:17;;;;;;;16.95;5.72;;;307.40;1843.20;;;;;;5119004;28;20431;-70
2020/12/05 08:12:43;;;;;;;7.93;4.30;;;307.30;1843.20;;;;;;5119583;28;20019;-68
2020/12/05 08:15:28;;;;;;;9.38;4.85;;;307.40;1817.60;;;;;;5119780;28;20103;-70
2020/12/05 08:17:55;;;;;;;12.07;6.13;;;307.40;1817.60;;;;;;5119935;28;20042;-71
2020/12/05 08:20:21;;;;;;;23.20;10.25;;;307.50;1817.60;;;;;;5119354;28;20065;-68
2020/12/05 08:22:46;;;;;;;11.35;4.45;;;307.60;1817.60;;;;;;5119722;28;20082;-70
2020/12/05 08:25:12;;;;;;;6.60;3.63;;;307.60;1792.00;;;;;;5119702;28;20028;-69
2020/12/05 08:27:39;;;;;;;13.88;6.47;;;307.70;1792.00;;;;;;5119110;28;20031;-72
2020/12/05 08:30:06;;;;;;;8.90;6.55;;;307.70;1792.00;;;;;;5119132;28;20447;-69
2020/12/05 08:32:32;;;;;;;20.38;7.20;;;307.80;1792.00;;;;;;5118654;28;20357;-71
2020/12/05 08:35:09;;;;;;;14.95;9.13;;;307.90;1766.40;;;;;;5118430;28;20023;-70
2020/12/05 08:37:40;;;;;;;18.75;10.25;;;308.00;1766.40;;;;;;5119375;28;20062;-69
2020/12/05 08:40:06;;;;;;;17.17;11.80;;;308.00;1766.40;;;;;;5104315;28;20429;-69
2020/12/05 08:42:32;;;;;;;22.15;13.57;;;308.00;1766.40;;;;;;5098084;28;20114;-73
2020/12/05 08:44:58;;;;;;;24.92;19.38;;;308.10;1740.80;;;;;;5101593;28;20027;-72
2020/12/05 08:47:24;;;;;;;16.42;8.07;;;308.10;1740.80;;;;;;5100653;28;20024;-71
2020/12/05 08:49:49;;;;;;;10.88;6.00;;;332.80;1766.40;;;;;;5098144;28;20027;-69
2020/12/05 08:52:24;;;;;;;8.27;4.97;;;332.80;1766.40;;;;;;5098240;28;20016;-72
2020/12/05 08:54:52;;;;;;;22.00;9.43;;;332.80;1766.40;;;;;;5097942;28;20430;-70
2020/12/05 08:57:19;;;;;;;12.65;9.50;;;332.90;1740.80;;;;;;5097829;28;20020;-69
2020/12/05 08:59:46;;;;;;;27.90;14.40;;;333.00;1740.80;;;;;;5098404;28;20107;-69
2020/12/05 09:02:14;;;;;;;24.63;15.32;;;332.90;1715.20;;;;;;5098680;28;20024;-69
2020/12/05 09:04:40;;;;;;;13.68;8.27;;;332.90;1715.20;;;;;;5097651;28;20028;-71
2020/12/05 09:07:18;;;;;;;45.60;19.33;;;332.90;1715.20;;;;;;5098370;28;20042;-68
2020/12/05 09:09:46;;;;;;;31.77;10.95;;;308.10;1689.60;;;;;;5097903;28;20035;-71
2020/12/05 09:12:19;;;;;;;14.63;4.80;;;307.90;1715.20;;;;;;5100666;28;20058;-69
2020/12/05 09:14:47;;;;;;;26.52;14.25;;;307.80;1689.60;;;;;;5118803;28;20058;-71
2020/12/05 09:17:32;;;;;;;13.00;7.90;;;307.80;1715.20;;;;;;5118833;28;20047;-69
2020/12/05 09:20:16;;;;;;;13.27;7.72;;;308.00;1766.40;;;;;;5111184;28;20024;-70
2020/12/05 09:22:49;;;;;;;23.98;16.15;;;332.80;1740.80;;;;;;5108042;27;20352;-68
2020/12/05 09:25:47;;;;;;;17.17;10.02;;;333.00;1740.80;;;;;;5121575;27;20037;-69
2020/12/05 09:28:20;;;;;;;19.83;9.82;;;333.10;1715.20;;;;;;5110964;28;20047;-69
2020/12/05 09:30:52;;;;;;;19.77;9.85;;;333.10;1715.20;;;;;;5110296;28;20030;-71
2020/12/05 09:33:19;;;;;;;19.10;11.38;;;333.30;1715.20;;;;;;5106296;28;20020;-68
2020/12/05 09:35:45;;;;;;;7.93;4.13;;;333.30;1715.20;;;;;;5113229;27;20454;-68
2020/12/05 09:38:12;;;;;;;7.05;4.28;;;333.40;1715.20;;;;;;5117138;28;20027;-70
2020/12/05 09:40:38;;;;;;;9.75;6.38;;;333.40;1689.60;;;;;;5117584;28;20405;-69
2020/12/05 09:43:04;;;;;;;22.85;13.07;;;333.50;1689.60;;;;;;5117403;28;20024;-69
2020/12/05 09:45:29;;;;;;;35.70;22.35;;;333.60;1664.00;;;;;;5104615;27;20039;-69
2020/12/05 09:47:55;;;;;;;49.08;34.38;;;333.60;1689.60;;;;;;5117833;28;20139;-69
2020/12/05 09:50:22;;;;;;;32.15;25.13;;;333.70;1664.00;;;;;;5117419;28;20023;-68
2020/12/05 09:52:48;;;;;;;72.80;50.95;;;333.70;1638.40;;;;;;5117025;28;20425;-69
2020/12/05 09:55:14;;;;;;;53.20;46.58;;;358.40;1638.40;;;;;;5117692;28;20031;-68
2020/12/05 09:57:41;;;;;;;22.10;13.98;;;358.40;1638.40;;;;;;5117520;28;20028;-68
2020/12/05 10:00:15;;;;;;;50.40;32.97;;;358.40;1638.40;;;;;;5117490;28;20031;-71
2020/12/05 10:02:41;;;;;;;23.83;20.63;;;358.50;1638.40;;;;;;5117879;28;20104;-70
2020/12/05 10:05:10;;;;;;;16.30;12.43;;;358.50;1638.40;;;;;;5117184;28;20073;-70
2020/12/05 10:07:36;;;;;;;17.10;14.70;;;358.60;1638.40;;;;;;5121408;27;20346;-71
2020/12/05 10:10:04;;;;;;;22.85;18.17;;;358.60;1612.80;;;;;;5137550;27;20103;-71
2020/12/05 10:12:32;;;;;;;13.20;11.48;;;358.60;1638.40;;;;;;5137583;27;20031;-70
2020/12/05 10:14:57;;;;;;;7.75;6.38;;;358.60;1612.80;;;;;;5137209;28;20460;-69
2020/12/05 10:17:24;;;;;;;14.70;9.05;;;358.60;1612.80;;;;;;5137637;28;20043;-69
2020/12/05 10:19:50;;;;;;;14.65;8.52;;;358.70;1612.80;;;;;;5122902;28;20076;-69
2020/12/05 10:22:15;;;;;;;23.42;13.52;;;358.80;1612.80;;;;;;5116554;28;20378;-71
2020/12/05 10:24:41;;;;;;;15.95;9.27;;;358.80;1587.20;;;;;;5131107;28;20023;-72
2020/12/05 10:27:07;;;;;;;12.13;8.02;;;358.90;1587.20;;;;;;5130388;28;20024;-70
2020/12/05 10:29:33;;;;;;;18.33;6.55;;;359.00;1587.20;;;;;;5117417;28;20088;-68
2020/12/05 10:31:59;;;;;;;15.73;7.55;;;359.10;1587.20;;;;;;5100557;28;20020;-69
2020/12/05 10:34:25;;;;;;;9.07;5.20;;;359.20;1587.20;;;;;;5096120;28;20039;-69
2020/12/05 10:36:53;;;;;;;9.23;5.55;;;359.30;1587.20;;;;;;5096676;28;20457;-71
2020/12/05 10:39:19;;;;;;;8.10;4.55;;;384.00;1561.60;;;;;;5096476;28;20031;-71
2020/12/05 10:41:48;;;;;;;12.32;5.40;;;384.00;1561.60;;;;;;5095939;28;20024;-70
2020/12/05 10:44:14;;;;;;;20.98;6.78;;;384.10;1536.00;;;;;;5096323;28;20019;-72
2020/12/05 10:46:44;;;;;;;13.88;6.00;;;384.30;1536.00;;;;;;5096790;28;20372;-71
2020/12/05 10:49:11;;;;;;;10.55;5.72;;;384.30;1536.00;;;;;;5095549;28;20032;-69
2020/12/05 10:51:37;;;;;;;8.32;5.15;;;384.50;1510.40;;;;;;5114626;28;20427;-69
2020/12/05 10:54:05;;;;;;;14.15;5.00;;;384.70;1484.80;;;;;;5116816;28;20027;-69
2020/12/05 10:56:30;;;;;;;8.43;4.63;;;384.80;1484.80;;;;;;5117159;28;20148;-69
2020/12/05 10:58:56;;;;;;;11.73;5.00;;;409.60;1484.80;;;;;;5116701;28;20023;-68
2020/12/05 11:01:22;;;;;;;9.18;4.45;;;409.90;1459.20;;;;;;5116751;28;20023;-71
2020/12/05 11:03:48;;;;;;;10.68;5.70;;;410.10;1459.20;;;;;;5118925;28;20039;-69
2020/12/05 11:06:19;;;;;;;12.02;4.57;;;410.10;1433.60;;;;;;5120647;27;20035;-70
2020/12/05 11:08:46;;;;;;;7.07;4.18;;;410.40;1408.00;;;;;;5120683;27;20062;-68
2020/12/05 11:11:11;;;;;;;17.13;5.18;;;410.50;1408.00;;;;;;5120820;28;20425;-70
2020/12/05 11:13:37;;;;;;;13.00;6.82;;;435.30;1382.40;;;;;;5120055;28;20135;-69
2020/12/05 11:16:03;;;;;;;12.30;5.10;;;435.50;1382.40;;;;;;5120745;28;20038;-69
2020/12/05 11:18:29;;;;;;;18.42;7.63;;;435.60;1356.80;;;;;;5120558;28;20026;-72
2020/12/05 11:20:55;;;;;;;17.95;5.32;;;435.90;1331.20;;;;;;5119592;28;20104;-73
2020/12/05 11:23:21;;;;;;;10.30;4.05;;;436.00;1331.20;;;;;;5119453;28;20077;-69
2020/12/05 11:25:47;;;;;;;9.05;4.97;;;460.90;1331.20;;;;;;5120621;28;20031;-70
2020/12/05 11:28:13;;;;;;;11.45;4.30;;;461.00;1305.60;;;;;;5120498;28;20294;-69
2020/12/05 11:30:39;;;;;;;9.73;4.47;;;461.30;1280.00;;;;;;5096309;28;20023;-72
2020/12/05 11:33:05;;;;;;;8.23;4.75;;;461.60;1280.00;;;;;;5110574;28;20028;-69
2020/12/05 11:35:31;;;;;;;14.32;4.35;;;486.40;1228.80;;;;;;5110666;28;20016;-68
2020/12/05 11:37:57;;;;;;;11.10;4.20;;;486.60;1228.80;;;;;;5107686;28;20103;-71
2020/12/05 11:40:24;;;;;;;9.55;4.78;;;486.80;1228.80;;;;;;5101687;28;20114;-66
2020/12/05 11:42:50;;;;;;;6.18;3.88;;;486.90;1203.20;;;;;;5107524;28;20061;-70
2020/12/05 11:45:16;;;;;;;7.72;4.10;;;486.90;1203.20;;;;;;5098961;28;20360;-68
2020/12/05 11:47:42;;;;;;;9.35;3.83;;;487.00;1203.20;;;;;;5097722;28;20027;-68
2020/12/05 11:50:07;;;;;;;6.80;4.22;;;487.20;1177.60;;;;;;5097954;28;20032;-67
2020/12/05 11:52:33;;;;;;;7.18;3.95;;;487.20;1177.60;;;;;;5098059;28;20064;-68
2020/12/05 11:54:59;;;;;;;15.13;4.90;;;487.20;1177.60;;;;;;5098959;28;20036;-68
2020/12/05 11:57:25;;;;;;;10.20;4.53;;;487.30;1152.00;;;;;;5099040;28;20028;-68
2020/12/05 11:59:50;;;;;;;8.10;4.82;;;487.30;1152.00;;;;;;5098034;28;20024;-68
2020/12/05 12:02:16;;;;;;;9.45;5.50;;;486.70;1152.00;;;;;;5099074;28;20063;-68
2020/12/05 12:04:42;;;;;;;9.45;5.32;;;486.70;1152.00;;;;;;5097511;28;20028;-68
2020/12/05 12:07:08;;;;;;;10.13;5.43;;;486.40;1177.60;;;;;;5114914;28;20032;-68
2020/12/05 12:09:34;;;;;;;17.85;5.20;;;486.60;1177.60;;;;;;5115561;28;20034;-67
2020/12/05 12:12:01;;;;;;;12.68;6.13;;;461.70;1177.60;;;;;;5116115;28;20054;-68
2020/12/05 12:14:27;;;;;;;8.55;5.03;;;461.70;1203.20;;;;;;5115366;28;20026;-69
2020/12/05 12:16:53;;;;;;;11.10;5.53;;;486.70;1177.60;;;;;;5132544;27;20340;-69
2020/12/05 12:19:19;;;;;;;10.45;6.13;;;487.00;1152.00;;;;;;5135542;27;20710;-70